Flight Track Log - Related Links

Times and Time Zones

All times are in EDT time to prevent confusion due to time zone crossing. See the SWA34 flight status page for this flight to view local times or setup timezone preferences in your user account.

Time Position Orientation Groundspeed Altitude Reporting Facility
EDT Latitude Longitude Course Direction KTS MPH feet Rate Location/Type
Wed 05:23:10 PM 32.9333 -96.9667 301° West 213 245 6,600  Level Dallas / Fort Worth TRACON
Wed 05:24:55 PM 33.0269 -97.0392 327° Northwest 263 303 10,500 2,122 Climbing Fort Worth Center
Wed 05:25:54 PM 33.1292 -97.0189 North 266 306 12,400 2,370 Climbing Fort Worth Center
Wed 05:26:54 PM 33.2147 -97.0039 North 335 386 15,200 2,579 Climbing Fort Worth Center
Wed 05:27:00 PM 33.3494 -96.7601 North  Level FlightAware Approximate
Wed 05:27:55 PM 33.3275 -96.9858 North 360 414 17,600  Level Fort Worth Center
Wed 05:28:54 PM 33.4317 -96.9653 North 372 428 19,400 1,866 Climbing Fort Worth Center
Wed 05:29:54 PM 33.5381 -96.9300 15° North 385 443 21,300 1,785 Climbing Fort Worth Center
Wed 05:30:55 PM 33.6506 -96.8844 19° North 408 470 23,000 1,600 Climbing Fort Worth Center
Wed 05:31:54 PM 33.7650 -96.8389 18° North 426 490 24,500 1,563 Climbing Fort Worth Center
Wed 05:32:54 PM 33.8817 -96.7956 17° North 426 490 26,100 1,488 Climbing Fort Worth Center
Wed 05:33:55 PM 33.9983 -96.7494 18° North 433 498 27,500 1,250 Climbing Fort Worth Center
Wed 05:34:54 PM 34.1006 -96.7061 19° North 443 510 28,600 1,361 Climbing Fort Worth Center
Wed 05:35:54 PM 34.2233 -96.6575 18° North 443 510 30,200 1,438 Climbing Fort Worth Center
Wed 05:36:55 PM 34.3461 -96.6111 17° North 443 510 31,500 1,350 Climbing Fort Worth Center
Wed 05:37:54 PM 34.4606 -96.5572 21° North 443 510 32,900 403 Climbing Fort Worth Center
Wed 05:38:54 PM 34.5792 -96.5081 19° North 443 510 32,300 -1,041 Descending Fort Worth Center
Wed 05:39:55 PM 34.6956 -96.4564 20° North 443 510 30,800 -1,550 Descending Fort Worth Center
Wed 05:40:54 PM 34.8119 -96.4044 20° North 443 510 29,200 -1,513 Descending Fort Worth Center
Wed 05:41:54 PM 34.9222 -96.3575 19° North 437 503 27,800 -2,033 Descending Fort Worth Center
Wed 05:42:55 PM 35.0322 -96.3081 20° North 424 488 25,100 -1,900 Descending Fort Worth Center
Wed 05:43:54 PM 35.1403 -96.2608 20° North 418 481 24,000 -1,800 Descending Fort Worth Center
Wed 05:44:55 PM 35.2461 -96.2136 20° North 407 468 21,500 -2,926 Descending Fort Worth Center
Wed 05:45:55 PM 35.3644 -96.1611 20° North 407 468 18,100 -2,749 Descending Fort Worth Center
Wed 05:48:18 PM 35.6094 -96.0506 20° North 401 461 12,200 -2,406 Descending Kansas City Center
Wed 05:49:12 PM 35.7064 -96.0117 18° North 375 432 10,200 -1,232 Descending Kansas City Center
Wed 05:50:10 PM 35.7850 -95.9731 22° Northeast 325 374 9,900 -931 Descending Kansas City Center
Wed 05:51:08 PM 35.8514 -95.9131 36° Northeast 289 333 8,400 -1,397 Descending Kansas City Center
Wed 05:51:23 PM 35.8586 -95.9028 49° Northeast 302 348 8,200 -1,770 Descending Kansas City Center
Wed 05:52:09 PM 35.9153 -95.8533 35° Northeast 283 326 6,600 -1,688 Descending Kansas City Center
Wed 05:52:27 PM 35.9225 -95.8442 46° Northeast 289 333 6,400 -1,391 Descending Kansas City Center
Wed 05:53:18 PM 35.9867 -95.8053 26° Northeast 257 296 5,000 -1,355 Descending Kansas City Center
Wed 05:54:31 PM 36.0644 -95.7808 14° North 244 281 3,600 -1,172 Descending Kansas City Center
Wed 05:55:26 PM 36.1269 -95.7767 North 233 268 2,500 -672 Descending Kansas City Center
Wed 05:56:27 PM 36.1817 -95.7797 357° North 192 221 2,300 -496 Descending Kansas City Center
Wed 05:57:27 PM 36.1967 -95.8294 291° West 151 174 1,500 -722 Descending Kansas City Center
Wed 05:58:40 PM 36.1950 -95.8858 268° West 161 185 700 -658 Descending Kansas City Center
Wed 06:00:00 PM 36.1984 -95.8881 270° West  Level Estimated
Wed 06:07:00 PM 36.1984 -95.8881 270° West  Level Estimated

Login

Don't have an account? Register now (free) for customized features, flight alerts, and more!